Time;durP1;ratioP1;P1;durP2;ratioP2;P2;SDS_P1;SDS_P2;PMS_P1;PMS_P2;Temp;Humidity;BMP_temperature;BMP_pressure;BME280_temperature;BME280_humidity;BME280_pressure;Samples;Min_cycle;Max_cycle;Signal;HPM_P1;HPM_P2
2022/10/27 00:01:32;;;;;;;11.50;6.50;;;12.20;99.90;;;;;;5021228;28;20042;-64
2022/10/27 00:03:58;;;;;;;16.00;6.30;;;12.20;99.90;;;;;;5022957;28;20099;-64
2022/10/27 00:06:24;;;;;;;14.32;6.90;;;12.20;99.90;;;;;;5020662;28;20121;-64
2022/10/27 00:08:50;;;;;;;12.20;6.00;;;12.10;99.90;;;;;;5018746;28;20442;-64
2022/10/27 00:11:17;;;;;;;13.35;6.80;;;12.10;99.90;;;;;;5016960;28;20041;-64
2022/10/27 00:13:43;;;;;;;12.80;6.53;;;12.10;99.90;;;;;;5016991;28;20041;-64
2022/10/27 00:16:14;;;;;;;15.50;6.82;;;12.10;99.90;;;;;;5021292;28;20052;-64
2022/10/27 00:18:42;;;;;;;12.50;7.18;;;12.10;99.90;;;;;;5012438;28;20175;-64
2022/10/27 00:21:16;;;;;;;18.33;7.57;;;12.10;99.90;;;;;;5020562;28;20550;-63
2022/10/27 00:23:42;;;;;;;10.98;6.60;;;12.10;99.90;;;;;;5021583;28;20034;-64
2022/10/27 00:26:11;;;;;;;14.52;7.85;;;12.10;99.90;;;;;;5019987;28;20037;-63
2022/10/27 00:28:37;;;;;;;14.10;7.30;;;12.20;99.90;;;;;;5019535;28;20404;-64
2022/10/27 00:31:07;;;;;;;18.60;8.38;;;12.20;99.90;;;;;;5020143;28;20291;-64
2022/10/27 00:33:33;;;;;;;13.77;7.30;;;12.20;99.90;;;;;;5014722;28;20052;-64
2022/10/27 00:36:10;;;;;;;14.30;8.70;;;12.20;99.90;;;;;;5019827;28;20120;-64
2022/10/27 00:38:37;;;;;;;12.35;8.65;;;12.30;99.90;;;;;;5017512;28;20042;-64
2022/10/27 00:41:04;;;;;;;18.63;9.05;;;12.30;99.90;;;;;;5018676;28;20060;-64
2022/10/27 00:43:35;;;;;;;16.95;9.13;;;12.40;99.90;;;;;;5017640;28;20053;-64
2022/10/27 00:46:04;;;;;;;17.48;8.55;;;12.40;99.90;;;;;;5019043;28;20038;-64
2022/10/27 00:48:32;;;;;;;15.68;7.97;;;12.50;99.90;;;;;;5012770;28;20713;-65
2022/10/27 00:51:01;;;;;;;18.92;8.50;;;12.50;99.90;;;;;;5014771;28;20392;-65
2022/10/27 00:53:28;;;;;;;20.52;8.20;;;12.50;99.90;;;;;;5022648;28;20457;-64
2022/10/27 00:55:54;;;;;;;13.70;7.30;;;12.50;99.90;;;;;;5021541;28;20041;-65
2022/10/27 00:58:21;;;;;;;19.15;8.45;;;12.50;99.90;;;;;;5013692;28;20056;-64
2022/10/27 01:00:46;;;;;;;17.83;7.72;;;12.40;99.90;;;;;;5019999;28;20370;-64
2022/10/27 01:03:15;;;;;;;15.23;7.82;;;12.40;99.90;;;;;;5019108;28;20057;-64
2022/10/27 01:05:43;;;;;;;16.88;8.23;;;12.40;99.90;;;;;;5015779;28;20036;-64
2022/10/27 01:08:09;;;;;;;15.82;7.93;;;12.40;99.90;;;;;;5013071;28;20042;-64
2022/10/27 01:10:34;;;;;;;14.27;7.72;;;12.30;99.90;;;;;;5013883;28;20034;-64
2022/10/27 01:13:01;;;;;;;15.70;8.65;;;12.30;99.90;;;;;;5021057;28;20109;-64
2022/10/27 01:16:09;;;;;;;15.45;8.02;;;12.30;99.90;;;;;;5021060;28;20120;-64
2022/10/27 01:18:57;;;;;;;13.48;8.00;;;12.30;99.90;;;;;;5011845;28;20041;-64
2022/10/27 01:21:38;;;;;;;13.40;7.75;;;12.30;99.90;;;;;;5017932;28;20136;-64
2022/10/27 01:24:25;;;;;;;18.30;9.85;;;12.30;99.90;;;;;;5016955;28;20030;-64
2022/10/27 01:27:00;;;;;;;13.38;9.05;;;12.30;99.90;;;;;;5017603;28;20033;-64
2022/10/27 01:29:47;;;;;;;17.02;9.65;;;12.40;99.90;;;;;;5020245;28;20450;-64
2022/10/27 01:32:29;;;;;;;14.45;9.27;;;12.50;99.90;;;;;;5030566;28;20084;-64
2022/10/27 01:35:08;;;;;;;17.30;10.52;;;12.50;99.90;;;;;;5019623;28;20121;-64
2022/10/27 01:38:07;;;;;;;16.83;9.18;;;12.60;99.90;;;;;;5014541;28;20075;-63
2022/10/27 01:40:49;;;;;;;20.27;10.10;;;12.70;99.90;;;;;;5014822;28;20128;-64
2022/10/27 01:43:22;;;;;;;13.75;8.63;;;12.80;99.90;;;;;;5021737;28;20510;-64
2022/10/27 01:45:48;;;;;;;15.82;9.75;;;12.80;99.90;;;;;;5015470;28;20037;-64
2022/10/27 01:48:15;;;;;;;19.52;9.48;;;12.90;99.90;;;;;;5014910;28;20060;-64
2022/10/27 01:50:41;;;;;;;15.45;9.27;;;13.00;99.90;;;;;;5015250;28;20042;-65
2022/10/27 01:53:10;;;;;;;20.70;10.88;;;13.00;99.90;;;;;;5019036;28;20036;-65
2022/10/27 01:55:54;;;;;;;17.42;9.88;;;13.10;99.90;;;;;;5019859;28;20053;-64
2022/10/27 01:58:48;;;;;;;21.23;10.63;;;13.10;99.90;;;;;;5013315;28;20059;-65
2022/10/27 02:01:21;;;;;;;15.70;10.23;;;13.20;99.90;;;;;;5015275;28;20053;-65
2022/10/27 02:04:16;;;;;;;19.85;10.30;;;13.30;99.90;;;;;;5013833;28;20477;-65
2022/10/27 02:07:11;;;;;;;19.23;10.10;;;13.40;99.90;;;;;;5024099;28;20034;-64
2022/10/27 02:09:40;;;;;;;23.77;10.48;;;13.40;99.90;;;;;;5014559;28;20164;-65
2022/10/27 02:12:12;;;;;;;16.77;9.70;;;13.40;99.90;;;;;;5016994;28;20049;-65
2022/10/27 02:14:37;;;;;;;19.35;10.20;;;13.40;99.90;;;;;;5013263;28;20131;-65
2022/10/27 02:17:05;;;;;;;20.63;10.48;;;13.40;99.90;;;;;;5012428;28;20045;-65
2022/10/27 02:19:39;;;;;;;16.83;10.63;;;13.40;99.90;;;;;;5013803;28;20448;-65
2022/10/27 02:22:06;;;;;;;18.83;9.95;;;13.50;99.90;;;;;;5018721;28;20064;-65
2022/10/27 02:24:32;;;;;;;15.65;10.50;;;13.40;99.90;;;;;;5013895;28;20038;-65
2022/10/27 02:26:57;;;;;;;17.08;11.32;;;13.40;99.90;;;;;;5021768;28;20453;-65
2022/10/27 02:29:43;;;;;;;14.88;10.07;;;13.40;99.90;;;;;;5011467;28;20140;-65
2022/10/27 02:32:13;;;;;;;22.80;10.50;;;13.30;99.90;;;;;;5018834;28;20041;-65
2022/10/27 02:34:40;;;;;;;23.25;10.57;;;13.30;99.90;;;;;;4992049;28;20069;-65
2022/10/27 02:37:08;;;;;;;18.30;9.80;;;13.30;99.90;;;;;;5020040;28;20045;-65
2022/10/27 02:39:34;;;;;;;14.85;9.52;;;13.30;99.90;;;;;;4994169;28;20060;-65
2022/10/27 02:42:01;;;;;;;19.10;10.27;;;13.20;99.90;;;;;;5031592;28;20046;-65
2022/10/27 02:44:26;;;;;;;16.98;10.07;;;13.20;99.90;;;;;;5012159;28;20034;-65
2022/10/27 02:46:52;;;;;;;21.38;10.93;;;13.20;99.90;;;;;;5019639;28;20083;-65
2022/10/27 02:49:18;;;;;;;17.83;10.82;;;13.10;99.90;;;;;;4997078;28;20049;-65
2022/10/27 02:51:43;;;;;;;24.98;12.38;;;13.20;99.90;;;;;;5018522;28;20052;-65
2022/10/27 02:54:09;;;;;;;18.40;11.80;;;13.20;99.90;;;;;;5013958;28;20045;-65
2022/10/27 02:56:35;;;;;;;23.30;11.65;;;13.20;99.90;;;;;;5014574;28;20033;-65
2022/10/27 02:59:00;;;;;;;19.15;11.30;;;13.20;99.90;;;;;;5015159;28;20200;-65
2022/10/27 03:01:26;;;;;;;17.60;10.45;;;13.10;99.90;;;;;;5016682;28;20088;-65
2022/10/27 03:03:51;;;;;;;17.10;10.20;;;13.10;99.90;;;;;;5021957;28;20038;-65
2022/10/27 03:06:17;;;;;;;16.95;10.52;;;13.10;99.90;;;;;;5020890;28;20040;-65
2022/10/27 03:08:43;;;;;;;16.23;10.55;;;13.00;99.90;;;;;;5016658;28;20153;-65
2022/10/27 03:11:08;;;;;;;18.00;11.55;;;13.00;99.90;;;;;;5021013;28;20034;-65
2022/10/27 03:13:34;;;;;;;21.45;11.57;;;13.00;99.90;;;;;;5012457;28;20045;-65
2022/10/27 03:16:00;;;;;;;19.60;9.98;;;13.00;99.90;;;;;;5015959;28;20042;-65
2022/10/27 03:18:25;;;;;;;22.92;11.43;;;13.00;99.90;;;;;;5016982;28;20037;-65
2022/10/27 03:20:51;;;;;;;21.65;11.23;;;13.00;99.90;;;;;;5029085;28;20037;-65
2022/10/27 03:23:16;;;;;;;17.30;11.88;;;13.00;99.90;;;;;;5019348;28;20034;-65
2022/10/27 03:25:43;;;;;;;17.77;10.02;;;13.00;99.90;;;;;;5020608;28;20048;-65
2022/10/27 03:28:10;;;;;;;19.05;10.32;;;13.00;99.90;;;;;;5020917;28;20115;-65
2022/10/27 03:30:36;;;;;;;19.55;10.60;;;12.90;99.90;;;;;;5017248;28;20034;-65
2022/10/27 03:33:02;;;;;;;20.17;10.55;;;12.90;99.90;;;;;;5012866;28;20030;-65
2022/10/27 03:35:28;;;;;;;15.25;9.52;;;12.90;99.90;;;;;;5023108;28;20065;-65
2022/10/27 03:37:58;;;;;;;15.13;8.95;;;12.90;99.90;;;;;;5018680;28;20484;-65
2022/10/27 03:40:25;;;;;;;22.50;10.90;;;12.80;99.90;;;;;;5022311;28;20092;-65
2022/10/27 03:42:56;;;;;;;19.25;10.25;;;12.80;99.90;;;;;;5016590;28;20053;-65
2022/10/27 03:45:22;;;;;;;17.00;10.85;;;12.80;99.90;;;;;;5022187;28;20034;-65
2022/10/27 03:47:48;;;;;;;18.95;10.73;;;12.70;99.90;;;;;;5020769;28;20378;-66
2022/10/27 03:50:13;;;;;;;17.92;10.25;;;12.70;99.90;;;;;;5000023;28;20104;-65
2022/10/27 03:52:41;;;;;;;19.83;11.40;;;12.70;99.90;;;;;;5016221;28;20049;-65
2022/10/27 03:55:07;;;;;;;18.17;10.23;;;12.60;99.90;;;;;;5022260;28;20524;-65
2022/10/27 03:57:32;;;;;;;16.80;10.60;;;12.60;99.90;;;;;;4998346;28;20119;-65
2022/10/27 03:59:58;;;;;;;22.05;11.50;;;12.60;99.90;;;;;;5025592;28;20045;-65
2022/10/27 04:02:23;;;;;;;17.85;10.50;;;12.50;99.90;;;;;;5012427;28;20049;-65
2022/10/27 04:04:49;;;;;;;18.55;10.80;;;12.50;99.90;;;;;;5019422;28;20034;-65
2022/10/27 04:07:15;;;;;;;14.00;10.23;;;12.50;99.90;;;;;;5002865;28;20048;-65
2022/10/27 04:09:40;;;;;;;17.83;10.05;;;12.50;99.90;;;;;;5017304;28;20046;-66
2022/10/27 04:12:06;;;;;;;18.45;10.27;;;12.40;99.90;;;;;;5011410;28;20042;-65
2022/10/27 04:14:32;;;;;;;15.57;9.18;;;12.40;99.90;;;;;;5020092;28;20099;-65
2022/10/27 04:16:57;;;;;;;15.68;9.73;;;12.30;99.90;;;;;;5021820;28;20044;-65
2022/10/27 04:19:23;;;;;;;21.25;11.23;;;12.30;99.90;;;;;;5019672;28;20042;-65
2022/10/27 04:21:49;;;;;;;16.48;9.55;;;12.30;99.90;;;;;;5017570;28;20053;-65
2022/10/27 04:24:14;;;;;;;20.25;10.07;;;12.20;99.90;;;;;;5019523;28;20033;-65
2022/10/27 04:26:40;;;;;;;16.55;10.40;;;12.20;99.90;;;;;;5019270;28;20050;-65
2022/10/27 04:29:06;;;;;;;19.80;10.45;;;12.20;99.90;;;;;;5013350;28;20049;-65
2022/10/27 04:31:31;;;;;;;19.75;11.25;;;12.10;99.90;;;;;;5019424;28;20034;-65
2022/10/27 04:33:58;;;;;;;19.50;11.60;;;12.10;99.90;;;;;;5018410;28;20042;-65
2022/10/27 04:36:24;;;;;;;17.40;10.65;;;12.20;99.90;;;;;;5018605;28;20408;-65
2022/10/27 04:38:50;;;;;;;17.70;11.35;;;12.20;99.90;;;;;;5015976;28;20034;-65
2022/10/27 04:41:16;;;;;;;13.68;8.57;;;12.20;99.90;;;;;;5021141;28;20437;-65
2022/10/27 04:43:41;;;;;;;21.35;11.18;;;12.20;99.90;;;;;;5001579;28;20085;-65
2022/10/27 04:46:07;;;;;;;20.85;11.38;;;12.10;99.90;;;;;;5017381;28;20394;-65
2022/10/27 04:48:32;;;;;;;16.73;11.48;;;12.10;99.90;;;;;;5015443;28;20053;-65
2022/10/27 04:50:58;;;;;;;18.52;11.90;;;12.10;99.90;;;;;;5022065;28;20088;-65
2022/10/27 04:53:24;;;;;;;24.95;14.13;;;12.10;99.90;;;;;;5021576;28;20077;-65
2022/10/27 04:55:51;;;;;;;23.83;12.77;;;12.00;99.90;;;;;;5011133;28;20041;-65
2022/10/27 04:58:17;;;;;;;21.40;12.63;;;12.00;99.90;;;;;;5012678;28;20064;-66
2022/10/27 05:00:43;;;;;;;19.25;13.75;;;12.10;99.90;;;;;;5012237;28;20068;-65
2022/10/27 05:03:09;;;;;;;22.38;13.32;;;12.00;99.90;;;;;;5010734;28;20041;-65
2022/10/27 05:05:35;;;;;;;22.98;15.43;;;12.10;99.90;;;;;;5017166;28;20030;-65
2022/10/27 05:08:02;;;;;;;18.40;13.88;;;12.10;99.90;;;;;;5013189;28;20048;-65
2022/10/27 05:10:30;;;;;;;20.52;13.68;;;12.10;99.90;;;;;;5019807;28;20049;-65
2022/10/27 05:12:55;;;;;;;21.73;14.05;;;12.10;99.90;;;;;;5021102;28;20037;-65
2022/10/27 05:15:21;;;;;;;26.38;14.55;;;12.20;99.90;;;;;;5021990;28;20132;-65
2022/10/27 05:17:47;;;;;;;23.27;15.75;;;12.20;99.90;;;;;;5014025;28;20054;-65
2022/10/27 05:20:13;;;;;;;29.55;16.38;;;12.20;99.90;;;;;;5014109;28;20038;-65
2022/10/27 05:22:39;;;;;;;23.90;16.23;;;12.20;99.90;;;;;;5014524;28;20349;-65
2022/10/27 05:25:06;;;;;;;23.25;16.55;;;12.20;99.90;;;;;;5012843;28;20041;-65
2022/10/27 05:27:32;;;;;;;27.48;16.80;;;12.20;99.90;;;;;;5018687;28;20037;-65
2022/10/27 05:29:57;;;;;;;23.08;16.55;;;12.30;99.90;;;;;;5018027;28;20041;-65
2022/10/27 05:32:23;;;;;;;20.05;15.13;;;12.30;99.90;;;;;;5012754;28;20065;-65
2022/10/27 05:34:49;;;;;;;24.98;16.55;;;12.30;99.90;;;;;;4998222;28;20080;-65
2022/10/27 05:37:15;;;;;;;23.52;16.63;;;12.30;99.90;;;;;;5013688;28;20113;-65
2022/10/27 05:39:41;;;;;;;29.50;18.20;;;12.40;99.90;;;;;;5013557;28;20037;-65
2022/10/27 05:42:06;;;;;;;26.17;16.80;;;12.40;99.90;;;;;;5003852;28;20446;-65
2022/10/27 05:44:32;;;;;;;22.20;14.93;;;12.40;99.90;;;;;;5017821;28;20053;-66
2022/10/27 05:46:58;;;;;;;24.45;16.08;;;12.50;99.90;;;;;;5011951;28;20022;-65
2022/10/27 05:49:24;;;;;;;21.98;15.48;;;12.50;99.90;;;;;;5018817;28;20041;-65
2022/10/27 05:51:50;;;;;;;21.70;15.23;;;12.50;99.90;;;;;;5013097;28;20041;-66
2022/10/27 05:54:17;;;;;;;28.08;15.68;;;12.50;99.90;;;;;;5007721;28;20446;-66
2022/10/27 05:56:43;;;;;;;22.33;16.15;;;12.60;99.90;;;;;;4999870;28;20045;-65
2022/10/27 05:59:12;;;;;;;21.15;15.65;;;12.60;99.90;;;;;;5009363;28;20034;-66
2022/10/27 06:01:38;;;;;;;20.83;15.20;;;12.60;99.90;;;;;;5011771;28;20053;-66
2022/10/27 06:04:03;;;;;;;23.25;16.08;;;12.60;99.90;;;;;;5002638;28;20034;-66
2022/10/27 06:06:29;;;;;;;22.00;14.82;;;12.60;99.90;;;;;;5007689;28;20033;-65
2022/10/27 06:08:55;;;;;;;23.05;16.85;;;12.60;99.90;;;;;;4989593;28;20069;-66
2022/10/27 06:11:21;;;;;;;20.48;15.77;;;12.70;99.90;;;;;;5013547;28;20044;-66
2022/10/27 06:13:50;;;;;;;20.13;14.30;;;12.70;99.90;;;;;;5011823;28;20061;-66
2022/10/27 06:16:21;;;;;;;20.33;14.00;;;12.70;99.90;;;;;;5009901;28;20070;-66
2022/10/27 06:18:52;;;;;;;20.05;13.88;;;12.70;99.90;;;;;;5004614;28;20572;-65
2022/10/27 06:21:24;;;;;;;24.40;14.85;;;12.70;99.90;;;;;;5015553;28;20111;-66
2022/10/27 06:23:56;;;;;;;23.02;14.75;;;12.80;99.90;;;;;;5014617;28;20069;-66
2022/10/27 06:26:29;;;;;;;18.17;13.20;;;12.70;99.90;;;;;;5014360;28;20045;-65
2022/10/27 06:28:57;;;;;;;24.17;15.60;;;12.80;99.90;;;;;;5017764;28;20049;-65
2022/10/27 06:31:23;;;;;;;20.70;14.35;;;12.80;99.90;;;;;;4996882;28;20046;-66
2022/10/27 06:33:48;;;;;;;20.00;13.63;;;12.80;99.90;;;;;;5010997;28;20430;-66
2022/10/27 06:36:14;;;;;;;17.25;13.95;;;12.80;99.90;;;;;;5005959;28;20041;-66
2022/10/27 06:38:40;;;;;;;20.48;14.52;;;12.90;99.90;;;;;;5011689;28;20045;-65
2022/10/27 06:41:05;;;;;;;19.35;14.25;;;12.90;99.90;;;;;;5024845;28;20038;-66
2022/10/27 06:43:31;;;;;;;17.70;12.45;;;12.90;99.90;;;;;;5011222;28;20046;-66
2022/10/27 06:45:57;;;;;;;17.75;13.27;;;12.90;99.90;;;;;;5001663;28;20044;-66
2022/10/27 06:48:22;;;;;;;25.30;17.35;;;12.90;99.90;;;;;;5017395;28;20052;-66
2022/10/27 06:50:48;;;;;;;21.60;15.93;;;13.00;99.90;;;;;;5017044;28;20037;-66
2022/10/27 06:53:14;;;;;;;22.58;15.18;;;13.00;99.90;;;;;;5008055;28;20058;-66
2022/10/27 06:55:40;;;;;;;18.90;13.45;;;13.00;99.90;;;;;;5003940;28;20536;-66
2022/10/27 06:58:06;;;;;;;20.50;13.32;;;13.10;99.90;;;;;;5015273;28;20034;-66
2022/10/27 07:00:31;;;;;;;17.75;12.68;;;13.10;99.90;;;;;;5012934;28;20056;-66
2022/10/27 07:02:57;;;;;;;15.00;11.88;;;13.10;99.90;;;;;;5003834;28;20045;-66
2022/10/27 07:05:23;;;;;;;15.05;10.35;;;13.20;99.90;;;;;;4993769;28;20466;-66
2022/10/27 07:07:51;;;;;;;17.38;12.65;;;13.30;99.90;;;;;;4992017;28;20042;-66
2022/10/27 07:10:17;;;;;;;14.68;11.02;;;13.40;99.90;;;;;;5011658;28;20045;-66
2022/10/27 07:12:57;;;;;;;13.10;10.23;;;13.40;99.90;;;;;;5014990;28;20122;-66
2022/10/27 07:15:25;;;;;;;17.45;10.45;;;13.50;99.90;;;;;;5012881;28;20069;-66
2022/10/27 07:17:55;;;;;;;17.55;10.20;;;13.60;99.90;;;;;;5010737;28;20050;-67
2022/10/27 07:20:20;;;;;;;14.75;9.65;;;13.60;99.90;;;;;;5013176;28;20096;-67
2022/10/27 07:22:46;;;;;;;13.23;9.38;;;13.70;99.90;;;;;;5013043;28;20030;-67
2022/10/27 07:25:12;;;;;;;12.93;9.52;;;13.80;99.90;;;;;;5010891;28;20080;-67
2022/10/27 07:27:37;;;;;;;14.95;9.98;;;14.00;99.90;;;;;;5010547;28;20066;-66
2022/10/27 07:30:04;;;;;;;15.20;9.07;;;14.10;99.90;;;;;;5011779;28;20040;-67
2022/10/27 07:32:29;;;;;;;14.90;9.38;;;14.20;99.90;;;;;;5010142;28;20121;-66
2022/10/27 07:34:55;;;;;;;17.55;8.55;;;14.20;99.90;;;;;;5011532;28;20184;-67
2022/10/27 07:37:21;;;;;;;13.43;8.82;;;14.30;99.90;;;;;;5013723;28;20488;-66
2022/10/27 07:39:46;;;;;;;14.50;8.30;;;14.40;99.90;;;;;;5014305;28;20033;-67
2022/10/27 07:42:12;;;;;;;13.88;8.15;;;14.50;99.90;;;;;;5026776;28;20513;-67
2022/10/27 07:44:38;;;;;;;11.70;7.97;;;14.60;99.90;;;;;;5011757;28;20896;-68
2022/10/27 07:47:03;;;;;;;10.23;7.68;;;14.70;99.90;;;;;;5013168;28;20128;-66
2022/10/27 07:49:29;;;;;;;12.35;7.68;;;14.90;99.90;;;;;;5010067;28;20030;-67
2022/10/27 07:51:54;;;;;;;11.70;6.97;;;15.00;99.90;;;;;;5014362;28;20732;-67
2022/10/27 07:54:20;;;;;;;13.05;7.28;;;15.10;99.90;;;;;;5013733;28;20393;-66
2022/10/27 07:56:49;;;;;;;15.63;7.70;;;15.10;99.90;;;;;;5013944;28;20124;-67
2022/10/27 07:59:15;;;;;;;12.40;7.18;;;15.20;99.90;;;;;;5010521;28;20476;-67
2022/10/27 08:01:40;;;;;;;11.50;7.50;;;15.40;99.90;;;;;;5011958;28;20033;-66
2022/10/27 08:04:06;;;;;;;12.23;7.57;;;15.60;99.90;;;;;;5017304;28;20034;-67
2022/10/27 08:06:31;;;;;;;12.73;7.43;;;15.80;99.90;;;;;;5016445;28;20369;-66
2022/10/27 08:08:57;;;;;;;9.73;6.72;;;16.00;99.90;;;;;;5021282;28;20462;-66
2022/10/27 08:11:23;;;;;;;13.90;7.15;;;16.20;99.90;;;;;;5012791;28;20817;-66
2022/10/27 08:13:49;;;;;;;11.15;6.57;;;16.40;99.90;;;;;;5021289;28;20049;-66
2022/10/27 08:16:14;;;;;;;11.80;6.43;;;16.60;99.90;;;;;;5009834;28;20076;-66
2022/10/27 08:18:40;;;;;;;10.07;5.97;;;16.60;99.90;;;;;;5017516;28;20042;-66
2022/10/27 08:21:06;;;;;;;13.57;6.28;;;16.50;99.90;;;;;;5000102;28;20129;-66
2022/10/27 08:23:31;;;;;;;11.70;7.22;;;16.50;99.90;;;;;;5000572;28;20046;-66
2022/10/27 08:25:57;;;;;;;11.98;6.57;;;16.50;99.90;;;;;;5021555;28;20040;-67
2022/10/27 08:28:25;;;;;;;10.73;6.60;;;16.50;99.90;;;;;;5018242;28;20424;-66
2022/10/27 08:30:51;;;;;;;10.00;6.43;;;16.50;99.90;;;;;;5002955;28;20122;-67
2022/10/27 08:33:17;;;;;;;9.82;6.60;;;16.50;99.90;;;;;;5022490;28;20149;-67
2022/10/27 08:35:43;;;;;;;9.43;6.13;;;16.50;99.90;;;;;;5017881;28;20045;-67
2022/10/27 08:38:13;;;;;;;9.70;6.28;;;16.60;99.90;;;;;;5028841;28;20516;-67
2022/10/27 08:40:55;;;;;;;10.02;5.53;;;16.90;99.90;;;;;;5014582;28;20137;-66
2022/10/27 08:43:48;;;;;;;11.77;6.00;;;17.60;99.90;;;;;;5013266;28;20050;-66
2022/10/27 08:47:05;;;;;;;10.13;5.60;;;18.50;99.90;;;;;;5014840;28;20046;-67
2022/10/27 08:49:59;;;;;;;8.70;5.60;;;19.40;99.90;;;;;;4976752;28;20468;-66
2022/10/27 08:52:52;;;;;;;13.00;6.95;;;20.20;99.90;;;;;;5004549;28;20155;-66
2022/10/27 08:55:47;;;;;;;7.97;5.22;;;20.80;99.90;;;;;;5013703;28;20034;-67
2022/10/27 08:58:25;;;;;;;9.55;5.10;;;21.40;99.90;;;;;;5003980;28;20060;-67
2022/10/27 09:00:57;;;;;;;9.88;5.05;;;21.70;99.90;;;;;;5000268;28;20041;-66
2022/10/27 09:03:41;;;;;;;9.00;4.68;;;22.20;99.90;;;;;;5017337;28;20574;-66
2022/10/27 09:06:23;;;;;;;12.18;5.18;;;22.40;99.90;;;;;;5016874;28;20064;-67
2022/10/27 09:09:10;;;;;;;8.48;4.30;;;22.70;99.90;;;;;;5012015;28;20485;-67
2022/10/27 09:12:28;;;;;;;10.13;4.60;;;22.70;99.90;;;;;;5015317;28;20053;-66
2022/10/27 09:15:27;;;;;;;7.13;4.15;;;22.60;99.90;;;;;;4964542;28;20050;-67
2022/10/27 09:17:57;;;;;;;6.35;4.03;;;22.70;99.90;;;;;;5012859;28;20045;-66
2022/10/27 09:20:25;;;;;;;5.35;3.65;;;22.70;99.90;;;;;;5012817;28;20042;-67
2022/10/27 09:22:53;;;;;;;11.25;4.35;;;22.60;99.90;;;;;;4995236;28;20077;-67
2022/10/27 09:25:20;;;;;;;6.78;3.85;;;22.50;99.90;;;;;;4996349;28;20049;-67
2022/10/27 09:27:51;;;;;;;5.88;3.65;;;22.30;99.90;;;;;;5013332;28;20053;-67
2022/10/27 09:30:17;;;;;;;7.78;3.90;;;22.10;99.90;;;;;;5020018;28;20045;-66
2022/10/27 09:32:47;;;;;;;7.85;4.32;;;21.70;99.90;;;;;;5015492;28;20042;-66
2022/10/27 09:35:22;;;;;;;5.93;3.42;;;21.40;99.90;;;;;;5015905;28;20099;-66
2022/10/27 09:37:48;;;;;;;6.15;3.90;;;21.10;99.90;;;;;;5013150;28;20065;-66
2022/10/27 09:40:17;;;;;;;8.15;3.38;;;20.90;99.90;;;;;;4994399;28;20053;-66
2022/10/27 09:42:44;;;;;;;9.45;4.30;;;20.70;99.90;;;;;;5010826;28;20060;-67
2022/10/27 09:45:19;;;;;;;5.35;3.55;;;20.70;99.90;;;;;;4993581;28;20179;-67
2022/10/27 09:47:51;;;;;;;6.97;3.45;;;20.60;99.90;;;;;;5013862;28;20045;-67
2022/10/27 09:50:24;;;;;;;6.88;3.25;;;20.40;99.90;;;;;;5022333;28;20037;-67
2022/10/27 09:52:51;;;;;;;6.13;3.13;;;20.30;99.90;;;;;;5013592;28;20077;-67
2022/10/27 09:55:18;;;;;;;5.10;2.83;;;20.20;99.90;;;;;;5029927;28;20404;-67
2022/10/27 09:57:47;;;;;;;6.72;3.20;;;20.20;99.90;;;;;;5015772;28;20088;-66
2022/10/27 10:00:15;;;;;;;8.55;3.08;;;20.20;99.90;;;;;;5013640;28;20072;-66
2022/10/27 10:03:05;;;;;;;6.80;2.65;;;20.20;99.90;;;;;;5007650;28;20053;-67
2022/10/27 10:05:34;;;;;;;6.78;2.63;;;20.20;99.90;;;;;;5006457;28;20453;-67
2022/10/27 10:08:23;;;;;;;6.53;2.72;;;20.20;99.90;;;;;;5015521;28;20042;-67
2022/10/27 10:10:54;;;;;;;5.50;2.42;;;20.10;99.90;;;;;;5018490;28;20053;-67
2022/10/27 10:13:21;;;;;;;6.40;2.63;;;20.30;99.90;;;;;;5015192;28;20042;-66
2022/10/27 10:15:48;;;;;;;5.45;2.13;;;20.70;99.90;;;;;;5018536;28;20093;-66
2022/10/27 10:18:28;;;;;;;4.65;2.15;;;21.20;99.90;;;;;;4982338;28;20361;-67
2022/10/27 10:21:03;;;;;;;4.03;1.80;;;21.70;99.90;;;;;;4995208;28;20057;-66
2022/10/27 10:23:35;;;;;;;4.03;1.30;;;22.20;99.90;;;;;;5009553;28;20084;-67
2022/10/27 10:26:04;;;;;;;6.78;1.52;;;22.80;99.90;;;;;;5011651;28;20042;-67
2022/10/27 10:28:40;;;;;;;4.13;1.35;;;23.10;99.90;;;;;;5013373;28;20181;-67
2022/10/27 10:31:10;;;;;;;3.65;1.40;;;23.00;99.90;;;;;;5012713;28;20053;-67
2022/10/27 10:33:43;;;;;;;4.85;1.35;;;22.50;99.90;;;;;;5013641;28;20046;-67
2022/10/27 10:36:23;;;;;;;3.97;1.40;;;22.00;99.90;;;;;;5017659;28;20041;-66
2022/10/27 10:38:52;;;;;;;2.28;1.02;;;21.50;99.90;;;;;;5012056;28;20042;-66
2022/10/27 10:41:21;;;;;;;3.28;1.02;;;21.10;99.90;;;;;;4993792;28;20501;-67
2022/10/27 10:44:14;;;;;;;3.55;1.00;;;20.80;99.90;;;;;;5015497;28;20049;-66
2022/10/27 10:46:54;;;;;;;6.45;1.23;;;20.70;99.90;;;;;;5020506;28;20116;-67
2022/10/27 10:49:44;;;;;;;4.80;1.23;;;20.50;99.90;;;;;;5014171;28;20046;-67
2022/10/27 10:52:19;;;;;;;3.13;1.05;;;20.40;99.90;;;;;;5013092;28;20065;-67
2022/10/27 10:54:46;;;;;;;2.60;0.95;;;20.50;99.90;;;;;;5015596;28;20038;-67
2022/10/27 10:57:33;;;;;;;5.55;1.30;;;20.80;99.90;;;;;;4995669;28;20082;-66
2022/10/27 10:59:59;;;;;;;3.72;1.05;;;21.40;99.90;;;;;;5011920;28;20042;-67
2022/10/27 11:02:29;;;;;;;3.50;1.08;;;21.60;99.90;;;;;;5013749;28;20458;-67
2022/10/27 11:05:08;;;;;;;6.50;1.20;;;21.90;99.90;;;;;;5016391;28;20461;-67
2022/10/27 11:07:34;;;;;;;5.55;1.75;;;21.90;99.90;;;;;;5013990;28;20038;-67
2022/10/27 11:10:11;;;;;;;5.63;1.05;;;21.70;99.90;;;;;;5016207;28;20038;-66
2022/10/27 11:12:50;;;;;;;3.83;1.05;;;21.60;99.90;;;;;;4990012;28;20045;-66
2022/10/27 11:15:28;;;;;;;3.95;1.05;;;21.50;99.90;;;;;;5012154;28;20042;-66
2022/10/27 11:17:57;;;;;;;5.18;1.00;;;21.50;99.90;;;;;;5010436;28;20424;-67
2022/10/27 11:20:43;;;;;;;3.38;0.80;;;21.20;99.90;;;;;;5016717;28;20052;-66
2022/10/27 11:23:22;;;;;;;4.75;1.10;;;21.00;99.90;;;;;;5013523;28;20057;-66
2022/10/27 11:25:48;;;;;;;3.80;0.88;;;20.70;99.90;;;;;;5009116;28;20117;-66
2022/10/27 11:28:41;;;;;;;3.22;0.88;;;20.50;99.90;;;;;;4990572;28;20319;-66
2022/10/27 11:31:17;;;;;;;5.40;1.38;;;20.40;99.90;;;;;;4998978;28;20069;-66
2022/10/27 11:33:55;;;;;;;3.13;1.20;;;20.20;99.90;;;;;;5012697;28;20116;-66
2022/10/27 11:36:38;;;;;;;3.53;1.02;;;20.10;99.90;;;;;;5014842;28;20073;-66
2022/10/27 11:39:06;;;;;;;5.55;1.40;;;20.00;99.90;;;;;;5018565;28;21188;-66
2022/10/27 11:42:02;;;;;;;2.88;1.10;;;19.90;99.90;;;;;;4999068;28;20047;-66
2022/10/27 11:45:23;;;;;;;3.78;1.17;;;19.90;99.90;;;;;;5020882;28;20057;-66
2022/10/27 11:47:57;;;;;;;4.53;0.95;;;19.80;99.90;;;;;;4964773;28;20475;-66
2022/10/27 11:50:26;;;;;;;2.13;0.73;;;19.70;99.90;;;;;;5005655;28;20124;-66
2022/10/27 11:52:56;;;;;;;2.90;1.10;;;19.70;99.90;;;;;;5027695;23;20038;-81
2022/10/27 11:55:38;;;;;;;3.83;0.90;;;19.60;99.90;;;;;;5022376;28;20143;-81
2022/10/27 11:58:23;;;;;;;4.22;1.13;;;19.60;99.90;;;;;;5031748;28;20041;-82
2022/10/27 12:01:18;;;;;;;2.97;0.95;;;19.60;99.90;;;;;;5024540;28;20049;-82
2022/10/27 12:03:53;;;;;;;;;;;19.50;99.90;;;;;;5047055;28;20053;-82
2022/10/27 12:06:18;;;;;;;4.28;0.90;;;19.50;99.90;;;;;;5026303;28;19971;-82
2022/10/27 12:09:18;;;;;;;6.00;0.90;;;19.40;99.90;;;;;;5033012;28;20089;-82
2022/10/27 12:12:03;;;;;;;4.30;0.93;;;19.50;99.90;;;;;;5035775;28;20037;-82
2022/10/27 12:14:51;;;;;;;3.40;0.95;;;19.50;99.90;;;;;;4996143;28;20674;-81
2022/10/27 12:17:32;;;;;;;2.92;1.20;;;19.50;99.90;;;;;;5035258;28;20053;-83
2022/10/27 12:20:00;;;;;;;5.50;1.45;;;19.50;99.90;;;;;;5039487;28;20053;-82
2022/10/27 12:22:34;;;;;;;4.50;1.15;;;19.40;99.90;;;;;;5025353;28;20061;-82
2022/10/27 12:25:09;;;;;;;;;;;19.40;99.90;;;;;;5010877;28;20496;-82
2022/10/27 12:27:43;;;;;;;4.03;1.00;;;19.40;99.90;;;;;;5038993;28;19917;-82
2022/10/27 12:30:18;;;;;;;3.15;1.00;;;19.40;99.90;;;;;;5022707;28;20144;-79
2022/10/27 12:32:58;;;;;;;3.90;1.42;;;19.40;99.90;;;;;;5011600;28;20049;-82
2022/10/27 12:35:36;;;;;;;4.03;0.90;;;19.40;99.90;;;;;;5042313;28;20113;-82
2022/10/27 12:38:25;;;;;;;4.00;0.90;;;19.40;99.90;;;;;;5028243;28;20033;-83
2022/10/27 12:41:08;;;;;;;4.93;0.95;;;19.40;99.90;;;;;;5010884;28;20135;-82
2022/10/27 12:44:14;;;;;;;3.88;0.90;;;19.50;99.90;;;;;;5034825;28;20055;-82
2022/10/27 12:47:10;;;;;;;3.78;1.10;;;19.50;99.90;;;;;;5053043;28;20064;-83
2022/10/27 12:49:41;;;;;;;6.30;0.98;;;19.50;99.90;;;;;;5064536;28;20033;-82
2022/10/27 12:52:27;;;;;;;2.60;1.00;;;19.60;99.90;;;;;;5008869;28;20048;-82
2022/10/27 12:55:16;;;;;;;3.17;0.98;;;19.60;99.90;;;;;;5059019;28;20060;-83
2022/10/27 12:58:01;;;;;;;2.20;0.80;;;19.70;99.90;;;;;;5026878;28;20102;-83